East Glacier Park, MT

12:39 AM MST on November 22, 2017 (GMT -0700)
Glacier Acres | | Change Station
Active Advisory: High Wind Warning

Elev 4741 ft 48.42 °N, 113.20 °W | Updated 12 seconds ago

Overcast
Overcast
45.1 °F
Feels Like 41 °F
N
7.4
Wind Variable Wind from NE

Today
High -- | Low -- °F
--% Chance of Precip.
Yesterday
High -- | Low -- °F
Precip. -- in
Pressure 29.90 in
Visibility 10.0 miles
Clouds Clear
Windchill 41 °F
Dew Point 41 °F
Humidity 85%
Rainfall 0.00 in
Snow Depth Not available.
7:51 AM 4:46 PM
Waxing Crescent, 13% visible
METAR KCTB 220656Z AUTO 24032G41KT 10SM CLR 10/04 A2984 RMK AO2 PK WND 25042/0646 SLP125 T01000044 401001100
Pressure 29.90 in
Visibility 10.0 miles
Clouds Clear
Windchill 41 °F
Dew Point 41 °F
Humidity 85%
Rainfall 0.00 in
Snow Depth Not available.
7:51 AM 4:46 PM
Waxing Crescent, 13% visible
METAR KCTB 220656Z AUTO 24032G41KT 10SM CLR 10/04 A2984 RMK AO2 PK WND 25042/0646 SLP125 T01000044 401001100

Get Your Daily Forecast Email!

Thanks for signing up!

Be on the lookout for a verification email in your inbox.

You'll start receiving severe weather alerts in your inbox..

×

10-Day Weather Forecast

Almanac

Astronomy

Nov. 22, 2017 Rise Set
Actual Time
Civil Twilight
Nautical Twilight
Astronomical Twilight
Moon
Length of Visible Light
Length of Day
Tomorrow will be .
, % of the Moon is Illuminated

Today's Extremes

State Highs State Lows

Community

WunderPhotos

Category 6

Welcome to Category 6. This is the collective home for Weather Underground's featured writeups by Dr. Jeff Masters (right), Bob Henson (left), Chris Burt, and other regular contributors.

Nearby

Air Quality

  Air Quality AQ Index Pollutant
Not available.

Snow Depth

Station Depth Elevation

Earthquake Activity

City Distance Mag. Time & Date
Minimum magnitude displayed is 2.5.

Coastal Water Temperatures

Place Temperature

Stations

Nearby Weather Stations

Station Location Temp. Windchill Dew Point Humidity Wind Precip. Elev Updated Type
                   

Watches & Warnings

High Wind Warning
Issued: 2:30 PM MST Nov. 21, 2017 – National Weather Service

... High Wind Warning remains in effect until 11 am MST
Wednesday...


* winds: southwest 30 to 40 mph with gusts up to 75 mph along the
Rocky Mountain front and around 60 mph for the adjacent High
Plains.

* Timing: winds will increase this evening and remain strong
through Wednesday morning. The strongest winds are expected
during the late evening tonight through the predawn hours of
Wednesday morning.

* Impacts: damaging winds will blow down trees and power lines.
Widespread power outages are expected. Travel will be difficult,
especially for high profile vehicles.

Precautionary/preparedness actions...

A High Wind Warning means a hazardous high wind event is expected
or occurring. Sustained wind speeds of at least 40 mph, or gusts
of 58 mph or more, can lead to property damage.



Http://www.Weather.Gov/greatfalls